TOM888 LPMA-ESNQ
Flight info
| Callsign | TOM888 |
|---|---|
| Flight time | 5h 47m |
| Altitude | 32000 |
| Route | MARCU DCT SNT T16 IDREL T13 MANOX/M079F320 T13 NILAV DCT GUNSO/N0458F320 DCT OSGAR DCT RINGA DCT PIPAR DCT BUDON DCT BEREP DCT OTRAX DCT KOSOB Z108 NAMIG DCT OSTAX DCT VAGAS |
| Aircraft | B738/M-SDE2E3FGHIRWXY/LB1 |
Departure
| Time | 2026-05-04 15:02 |
|---|---|
| Airport | Cristiano Ronaldo International Airport (LPMA) |
Arrival
| Time | 2026-05-04 20:50 |
|---|---|
| Airport | Kiruna Airport (ESNQ) |
| Time | Latitude | Longitude | Altitude | Speed | Heading |
|---|---|---|---|---|---|
| 2026-05-04 14:28 | 32.69513 | -16.77436 | 168 ft | 0 kts | 138° |
| 2026-05-04 14:52 | 32.69521 | -16.77445 | 168 ft | 4 kts | 138° |
| 2026-05-04 14:52 | 32.69541 | -16.77467 | 168 ft | 4 kts | 138° |
| 2026-05-04 14:53 | 32.69558 | -16.77484 | 168 ft | 4 kts | 126° |
| 2026-05-04 14:53 | 32.69564 | -16.77510 | 168 ft | 4 kts | 68° |
| 2026-05-04 14:53 | 32.69550 | -16.77534 | 168 ft | 4 kts | 46° |
| 2026-05-04 14:53 | 32.69539 | -16.77547 | 168 ft | 0 kts | 46° |
| 2026-05-04 14:57 | 32.69540 | -16.77546 | 168 ft | 1 kts | 46° |
| 2026-05-04 14:57 | 32.69558 | -16.77523 | 168 ft | 7 kts | 46° |
| 2026-05-04 14:58 | 32.69608 | -16.77462 | 168 ft | 13 kts | 46° |
| 2026-05-04 14:58 | 32.69684 | -16.77368 | 168 ft | 18 kts | 46° |
| 2026-05-04 14:58 | 32.69771 | -16.77260 | 177 ft | 18 kts | 46° |
| 2026-05-04 14:58 | 32.69866 | -16.77178 | 183 ft | 17 kts | 5° |
| 2026-05-04 14:59 | 32.69986 | -16.77178 | 188 ft | 19 kts | 0° |
| 2026-05-04 14:59 | 32.70093 | -16.77089 | 194 ft | 21 kts | 45° |
| 2026-05-04 14:59 | 32.70368 | -16.76827 | 187 ft | 22 kts | 6° |
| 2026-05-04 15:00 | 32.70406 | -16.76752 | 199 ft | 8 kts | 126° |
| 2026-05-04 15:00 | 32.70399 | -16.76746 | 199 ft | 0 kts | 146° |
| 2026-05-04 15:00 | 32.70378 | -16.76757 | 186 ft | 3 kts | 223° |
| 2026-05-04 15:01 | 32.70378 | -16.76758 | 186 ft | 3 kts | 224° |
| 2026-05-04 15:01 | 32.70175 | -16.76993 | 194 ft | 80 kts | 225° |
| 2026-05-04 15:01 | 32.69606 | -16.77659 | 176 ft | 148 kts | 224° |
| 2026-05-04 15:02 | 32.68744 | -16.78659 | 397 ft | 186 kts | 225° |
| 2026-05-04 15:02 | 32.67831 | -16.79690 | 1453 ft | 178 kts | 207° |
| 2026-05-04 15:02 | 32.66620 | -16.79887 | 2226 ft | 188 kts | 168° |
| 2026-05-04 15:02 | 32.65290 | -16.79484 | 2499 ft | 212 kts | 168° |
| 2026-05-04 15:03 | 32.63779 | -16.79114 | 2746 ft | 230 kts | 170° |
| 2026-05-04 15:03 | 32.62175 | -16.78768 | 3238 ft | 236 kts | 171° |
| 2026-05-04 15:03 | 32.60517 | -16.78442 | 3604 ft | 251 kts | 172° |
| 2026-05-04 15:03 | 32.58771 | -16.77977 | 4044 ft | 265 kts | 155° |
| 2026-05-04 15:04 | 32.57426 | -16.76503 | 4796 ft | 269 kts | 120° |
| 2026-05-04 15:04 | 32.56907 | -16.74375 | 5571 ft | 274 kts | 93° |
| 2026-05-04 15:04 | 32.57211 | -16.72143 | 6293 ft | 279 kts | 68° |
| 2026-05-04 15:04 | 32.58236 | -16.70186 | 7006 ft | 282 kts | 49° |
| 2026-05-04 15:05 | 32.59598 | -16.68483 | 7630 ft | 288 kts | 38° |
| 2026-05-04 15:05 | 32.61361 | -16.67443 | 8316 ft | 288 kts | 15° |
| 2026-05-04 15:05 | 32.63293 | -16.66792 | 9087 ft | 290 kts | 13° |
| 2026-05-04 15:05 | 32.65255 | -16.66173 | 9794 ft | 294 kts | 13° |
| 2026-05-04 15:06 | 32.67246 | -16.65544 | 10411 ft | 300 kts | 13° |
| 2026-05-04 15:06 | 32.69330 | -16.64877 | 10596 ft | 322 kts | 13° |
| 2026-05-04 15:06 | 32.71558 | -16.64150 | 10769 ft | 343 kts | 13° |
| 2026-05-04 15:07 | 32.76409 | -16.62528 | 11130 ft | 379 kts | 14° |
| 2026-05-04 15:07 | 32.78973 | -16.61653 | 11598 ft | 386 kts | 14° |
| 2026-05-04 15:07 | 32.81528 | -16.60775 | 12212 ft | 389 kts | 14° |
| 2026-05-04 15:07 | 32.84135 | -16.59875 | 12829 ft | 392 kts | 14° |
| 2026-05-04 15:08 | 32.86762 | -16.58966 | 13447 ft | 395 kts | 15° |
| 2026-05-04 15:08 | 32.89409 | -16.58048 | 14020 ft | 398 kts | 14° |
| 2026-05-04 15:08 | 32.92084 | -16.57121 | 14573 ft | 403 kts | 14° |
| 2026-05-04 15:08 | 32.94784 | -16.56184 | 15121 ft | 405 kts | 14° |
| 2026-05-04 15:09 | 32.97496 | -16.55244 | 15648 ft | 408 kts | 14° |
| 2026-05-04 15:09 | 33.00233 | -16.54294 | 16152 ft | 411 kts | 14° |
| 2026-05-04 15:09 | 33.02953 | -16.53350 | 16641 ft | 415 kts | 14° |
| 2026-05-04 15:10 | 33.08536 | -16.51409 | 17643 ft | 421 kts | 14° |
| 2026-05-04 15:10 | 33.11359 | -16.50427 | 18136 ft | 424 kts | 14° |
| 2026-05-04 15:10 | 33.17063 | -16.48440 | 19001 ft | 430 kts | 14° |
| 2026-05-04 15:11 | 33.19947 | -16.47435 | 19405 ft | 433 kts | 14° |
| 2026-05-04 15:11 | 33.22851 | -16.46421 | 19809 ft | 436 kts | 13° |
| 2026-05-04 15:11 | 33.25735 | -16.45414 | 20207 ft | 439 kts | 13° |
| 2026-05-04 15:11 | 33.28679 | -16.44386 | 20591 ft | 442 kts | 13° |
| 2026-05-04 15:12 | 33.31639 | -16.43351 | 20989 ft | 445 kts | 13° |
| 2026-05-04 15:12 | 33.34624 | -16.42307 | 21374 ft | 448 kts | 13° |
| 2026-05-04 15:12 | 33.37627 | -16.41255 | 21761 ft | 451 kts | 13° |
| 2026-05-04 15:12 | 33.40650 | -16.40196 | 22118 ft | 454 kts | 13° |
| 2026-05-04 15:13 | 33.43694 | -16.39128 | 22469 ft | 457 kts | 13° |
| 2026-05-04 15:13 | 33.46759 | -16.38053 | 22811 ft | 460 kts | 13° |
| 2026-05-04 15:13 | 33.49842 | -16.36970 | 23150 ft | 463 kts | 13° |
| 2026-05-04 15:13 | 33.52944 | -16.35880 | 23493 ft | 466 kts | 13° |
| 2026-05-04 15:14 | 33.56061 | -16.34783 | 23806 ft | 469 kts | 13° |
| 2026-05-04 15:14 | 33.59157 | -16.33693 | 24101 ft | 471 kts | 13° |
| 2026-05-04 15:14 | 33.62307 | -16.32583 | 24402 ft | 473 kts | 13° |
| 2026-05-04 15:14 | 33.65468 | -16.31469 | 24746 ft | 474 kts | 13° |
| 2026-05-04 15:15 | 33.68635 | -16.30351 | 25084 ft | 475 kts | 13° |
| 2026-05-04 15:15 | 33.71807 | -16.29231 | 25356 ft | 477 kts | 13° |
| 2026-05-04 15:15 | 33.75000 | -16.28103 | 25608 ft | 480 kts | 13° |
| 2026-05-04 15:16 | 33.81434 | -16.25827 | 26107 ft | 484 kts | 13° |
| 2026-05-04 15:16 | 33.84671 | -16.24681 | 26363 ft | 486 kts | 13° |
| 2026-05-04 15:16 | 33.91187 | -16.22370 | 26858 ft | 490 kts | 13° |
| 2026-05-04 15:17 | 33.94412 | -16.21225 | 27173 ft | 490 kts | 13° |
| 2026-05-04 15:17 | 34.00933 | -16.18905 | 27923 ft | 487 kts | 13° |
| 2026-05-04 15:17 | 34.04184 | -16.17747 | 28277 ft | 487 kts | 13° |
| 2026-05-04 15:18 | 34.07432 | -16.16590 | 28598 ft | 487 kts | 13° |
| 2026-05-04 15:18 | 34.10685 | -16.15431 | 28945 ft | 487 kts | 13° |
| 2026-05-04 15:18 | 34.13930 | -16.14273 | 29308 ft | 486 kts | 13° |
| 2026-05-04 15:19 | 34.20380 | -16.11968 | 30382 ft | 476 kts | 12° |
| 2026-05-04 15:19 | 34.23496 | -16.10850 | 30834 ft | 472 kts | 12° |
| 2026-05-04 15:19 | 34.29863 | -16.08576 | 31037 ft | 481 kts | 12° |
| 2026-05-04 15:20 | 34.33075 | -16.07427 | 31268 ft | 482 kts | 12° |
| 2026-05-04 15:20 | 34.36289 | -16.06275 | 31563 ft | 481 kts | 12° |
| 2026-05-04 15:20 | 34.39492 | -16.05124 | 31889 ft | 479 kts | 12° |
| 2026-05-04 15:20 | 34.42686 | -16.03975 | 32164 ft | 479 kts | 12° |
| 2026-05-04 15:21 | 34.49118 | -16.01663 | 32152 ft | 483 kts | 12° |
| 2026-05-04 15:22 | 34.58664 | -15.98218 | 32153 ft | 476 kts | 11° |
| 2026-05-04 15:22 | 34.68183 | -15.94780 | 32154 ft | 475 kts | 11° |
| 2026-05-04 15:23 | 34.74521 | -15.92486 | 32164 ft | 476 kts | 11° |
| 2026-05-04 15:23 | 34.80863 | -15.90187 | 32162 ft | 475 kts | 11° |
| 2026-05-04 15:24 | 34.93501 | -15.85594 | 32164 ft | 476 kts | 11° |
| 2026-05-04 15:25 | 34.99844 | -15.83283 | 32163 ft | 476 kts | 11° |
| 2026-05-04 15:26 | 35.09367 | -15.79806 | 32164 ft | 476 kts | 11° |
| 2026-05-04 15:26 | 35.18853 | -15.76334 | 32164 ft | 477 kts | 11° |
| 2026-05-04 15:27 | 35.28395 | -15.72833 | 32166 ft | 477 kts | 10° |
| 2026-05-04 15:28 | 35.37935 | -15.69324 | 32167 ft | 477 kts | 10° |
| 2026-05-04 15:29 | 35.47470 | -15.65808 | 32192 ft | 477 kts | 10° |
| 2026-05-04 15:30 | 35.69604 | -15.57613 | 32180 ft | 474 kts | 10° |
| 2026-05-04 15:31 | 35.79062 | -15.54097 | 32171 ft | 473 kts | 11° |
| 2026-05-04 15:32 | 35.94721 | -15.48256 | 32174 ft | 471 kts | 11° |
| 2026-05-04 15:34 | 36.10385 | -15.42389 | 32171 ft | 470 kts | 11° |
| 2026-05-04 15:34 | 36.19757 | -15.39049 | 32166 ft | 465 kts | 4° |
| 2026-05-04 15:35 | 36.29291 | -15.38396 | 32185 ft | 457 kts | 355° |
| 2026-05-04 15:36 | 36.38782 | -15.38038 | 32175 ft | 457 kts | 355° |
| 2026-05-04 15:36 | 36.45146 | -15.37744 | 32177 ft | 458 kts | 356° |
| 2026-05-04 15:37 | 36.51512 | -15.37432 | 32185 ft | 458 kts | 356° |
| 2026-05-04 15:37 | 36.57885 | -15.37116 | 32183 ft | 458 kts | 356° |
| 2026-05-04 15:38 | 36.64256 | -15.36800 | 32178 ft | 458 kts | 356° |
| 2026-05-04 15:38 | 36.70575 | -15.36487 | 32179 ft | 457 kts | 356° |
| 2026-05-04 15:39 | 36.76937 | -15.36173 | 32191 ft | 457 kts | 356° |
| 2026-05-04 15:40 | 36.86470 | -15.35701 | 32180 ft | 457 kts | 356° |
| 2026-05-04 15:40 | 36.92821 | -15.35385 | 32179 ft | 456 kts | 356° |
| 2026-05-04 15:41 | 36.99126 | -15.35072 | 32186 ft | 457 kts | 356° |
| 2026-05-04 15:41 | 37.05471 | -15.34756 | 32183 ft | 456 kts | 356° |
| 2026-05-04 15:42 | 37.11819 | -15.34439 | 32181 ft | 456 kts | 356° |
| 2026-05-04 15:42 | 37.18166 | -15.34122 | 32182 ft | 456 kts | 356° |
| 2026-05-04 15:43 | 37.24474 | -15.33806 | 32192 ft | 457 kts | 357° |
| 2026-05-04 15:43 | 37.30827 | -15.33488 | 32187 ft | 457 kts | 357° |
| 2026-05-04 15:44 | 37.37189 | -15.33168 | 32185 ft | 458 kts | 357° |
| 2026-05-04 15:44 | 37.43552 | -15.32847 | 32186 ft | 458 kts | 357° |
| 2026-05-04 15:45 | 37.49879 | -15.32528 | 32186 ft | 458 kts | 357° |
| 2026-05-04 15:45 | 37.56253 | -15.32206 | 32185 ft | 458 kts | 357° |
| 2026-05-04 15:46 | 37.62626 | -15.31884 | 32185 ft | 459 kts | 357° |
| 2026-05-04 15:46 | 37.69006 | -15.31561 | 32194 ft | 459 kts | 358° |
| 2026-05-04 15:47 | 37.75350 | -15.31238 | 32189 ft | 459 kts | 358° |
| 2026-05-04 15:47 | 37.81736 | -15.30913 | 32184 ft | 460 kts | 358° |
| 2026-05-04 15:48 | 37.88127 | -15.30588 | 32187 ft | 460 kts | 358° |
| 2026-05-04 15:48 | 37.97671 | -15.30100 | 32182 ft | 459 kts | 358° |
| 2026-05-04 15:49 | 38.04055 | -15.29773 | 32183 ft | 459 kts | 358° |
| 2026-05-04 15:49 | 38.10438 | -15.29446 | 32181 ft | 459 kts | 358° |
| 2026-05-04 15:50 | 38.16817 | -15.29118 | 32197 ft | 459 kts | 357° |
| 2026-05-04 15:50 | 38.23188 | -15.28791 | 32188 ft | 458 kts | 357° |
| 2026-05-04 15:51 | 38.29509 | -15.28465 | 32190 ft | 457 kts | 357° |
| 2026-05-04 15:51 | 38.35860 | -15.28137 | 32209 ft | 456 kts | 357° |
| 2026-05-04 15:52 | 38.42198 | -15.27809 | 32193 ft | 456 kts | 357° |
| 2026-05-04 15:52 | 38.48530 | -15.27481 | 32189 ft | 455 kts | 357° |
| 2026-05-04 15:53 | 38.54806 | -15.27155 | 32190 ft | 454 kts | 357° |
| 2026-05-04 15:53 | 38.61110 | -15.26828 | 32200 ft | 453 kts | 356° |
| 2026-05-04 15:54 | 38.67411 | -15.26500 | 32188 ft | 453 kts | 356° |
| 2026-05-04 15:54 | 38.73698 | -15.26172 | 32190 ft | 452 kts | 356° |
| 2026-05-04 15:55 | 38.79928 | -15.25846 | 32206 ft | 451 kts | 356° |
| 2026-05-04 15:55 | 38.86196 | -15.25518 | 32194 ft | 450 kts | 356° |
| 2026-05-04 15:56 | 38.92457 | -15.25190 | 32192 ft | 450 kts | 356° |
| 2026-05-04 15:56 | 38.98706 | -15.24862 | 32187 ft | 449 kts | 356° |
| 2026-05-04 15:57 | 39.04909 | -15.24535 | 32205 ft | 449 kts | 356° |
| 2026-05-04 15:57 | 39.11148 | -15.24206 | 32193 ft | 448 kts | 356° |
| 2026-05-04 15:58 | 39.17372 | -15.23878 | 32192 ft | 447 kts | 356° |
| 2026-05-04 15:58 | 39.23588 | -15.23549 | 32191 ft | 447 kts | 356° |
| 2026-05-04 15:59 | 39.29755 | -15.23222 | 32198 ft | 446 kts | 356° |
| 2026-05-04 15:59 | 39.35951 | -15.22893 | 32193 ft | 445 kts | 356° |
| 2026-05-04 16:00 | 39.42137 | -15.22564 | 32193 ft | 444 kts | 355° |
| 2026-05-04 16:00 | 39.48310 | -15.22235 | 32222 ft | 443 kts | 355° |
| 2026-05-04 16:01 | 39.54431 | -15.21908 | 32204 ft | 443 kts | 355° |
| 2026-05-04 16:01 | 39.60584 | -15.21579 | 32189 ft | 442 kts | 355° |
| 2026-05-04 16:02 | 39.66722 | -15.21250 | 32192 ft | 441 kts | 355° |
| 2026-05-04 16:03 | 39.75905 | -15.20758 | 32194 ft | 440 kts | 355° |
| 2026-05-04 16:03 | 39.81981 | -15.20431 | 32193 ft | 440 kts | 355° |
| 2026-05-04 16:04 | 39.88093 | -15.20102 | 32195 ft | 440 kts | 355° |
| 2026-05-04 16:04 | 39.97272 | -15.19607 | 32197 ft | 440 kts | 355° |
| 2026-05-04 16:05 | 40.03395 | -15.19275 | 32191 ft | 440 kts | 355° |
| 2026-05-04 16:06 | 40.12530 | -15.18779 | 32219 ft | 440 kts | 355° |
| 2026-05-04 16:07 | 40.24756 | -15.18113 | 32189 ft | 439 kts | 355° |
| 2026-05-04 16:08 | 40.36874 | -15.17450 | 32205 ft | 436 kts | 355° |
| 2026-05-04 16:09 | 40.51975 | -15.16622 | 32192 ft | 433 kts | 355° |
| 2026-05-04 16:10 | 40.63944 | -15.15963 | 32199 ft | 431 kts | 354° |
| 2026-05-04 16:11 | 40.75901 | -15.15302 | 32191 ft | 429 kts | 354° |
| 2026-05-04 16:12 | 40.93716 | -15.14314 | 32191 ft | 427 kts | 354° |
| 2026-05-04 16:13 | 41.05590 | -15.13653 | 32203 ft | 427 kts | 355° |
| 2026-05-04 16:14 | 41.17413 | -15.12990 | 32193 ft | 426 kts | 355° |
| 2026-05-04 16:16 | 41.32227 | -15.12158 | 32191 ft | 426 kts | 355° |
| 2026-05-04 16:17 | 41.46971 | -15.11326 | 32194 ft | 425 kts | 355° |
| 2026-05-04 16:18 | 41.58739 | -15.10659 | 32195 ft | 424 kts | 355° |
| 2026-05-04 16:19 | 41.73473 | -15.09820 | 32192 ft | 423 kts | 356° |
| 2026-05-04 16:20 | 41.88109 | -15.08983 | 32194 ft | 421 kts | 356° |
| 2026-05-04 16:22 | 42.02720 | -15.06995 | 32207 ft | 436 kts | 13° |
| 2026-05-04 16:23 | 42.19668 | -14.97920 | 32192 ft | 437 kts | 14° |
| 2026-05-04 16:25 | 42.36615 | -14.88903 | 32191 ft | 437 kts | 15° |
| 2026-05-04 16:26 | 42.56274 | -14.78386 | 32178 ft | 433 kts | 15° |
| 2026-05-04 16:28 | 42.70208 | -14.70888 | 32196 ft | 429 kts | 16° |
| 2026-05-04 16:29 | 42.89499 | -14.60449 | 32199 ft | 426 kts | 16° |
| 2026-05-04 16:31 | 43.03219 | -14.52981 | 32189 ft | 426 kts | 17° |
| 2026-05-04 16:32 | 43.19745 | -14.43938 | 32176 ft | 426 kts | 17° |
| 2026-05-04 16:33 | 43.30720 | -14.37902 | 32177 ft | 426 kts | 17° |
| 2026-05-04 16:34 | 43.38967 | -14.33351 | 32172 ft | 426 kts | 18° |
| 2026-05-04 16:35 | 43.55364 | -14.24263 | 32182 ft | 423 kts | 18° |
| 2026-05-04 16:36 | 43.63545 | -14.19709 | 32175 ft | 423 kts | 18° |
| 2026-05-04 16:37 | 43.71721 | -14.15145 | 32167 ft | 423 kts | 18° |
| 2026-05-04 16:38 | 43.82593 | -14.09054 | 32165 ft | 423 kts | 19° |
| 2026-05-04 16:39 | 43.96215 | -14.01388 | 32157 ft | 422 kts | 19° |
| 2026-05-04 16:40 | 44.07065 | -13.95255 | 32158 ft | 422 kts | 19° |
| 2026-05-04 16:41 | 44.20650 | -13.87541 | 32189 ft | 421 kts | 19° |
| 2026-05-04 16:43 | 44.34175 | -13.79825 | 32154 ft | 421 kts | 19° |
| 2026-05-04 16:43 | 44.42309 | -13.75164 | 32141 ft | 421 kts | 19° |
| 2026-05-04 16:45 | 44.58504 | -13.65844 | 32149 ft | 421 kts | 20° |
| 2026-05-04 16:46 | 44.72023 | -13.58021 | 32134 ft | 422 kts | 20° |
| 2026-05-04 16:47 | 44.82893 | -13.51700 | 32132 ft | 422 kts | 20° |
| 2026-05-04 16:48 | 44.93701 | -13.45391 | 32157 ft | 421 kts | 20° |
| 2026-05-04 16:49 | 45.04716 | -13.39737 | 32130 ft | 421 kts | 13° |
| 2026-05-04 16:50 | 45.16037 | -13.35617 | 32123 ft | 422 kts | 13° |
| 2026-05-04 16:51 | 45.24539 | -13.32428 | 32117 ft | 421 kts | 14° |
| 2026-05-04 16:52 | 45.35791 | -13.28147 | 32117 ft | 419 kts | 14° |
| 2026-05-04 16:53 | 45.44230 | -13.24924 | 32110 ft | 419 kts | 14° |
| 2026-05-04 16:54 | 45.55474 | -13.20615 | 32110 ft | 418 kts | 14° |
| 2026-05-04 16:55 | 45.72286 | -13.14139 | 32112 ft | 417 kts | 14° |
| 2026-05-04 16:56 | 45.86261 | -13.08725 | 32110 ft | 417 kts | 15° |
| 2026-05-04 16:57 | 45.94674 | -13.05452 | 32097 ft | 418 kts | 15° |
| 2026-05-04 16:58 | 46.04995 | -13.01423 | 32274 ft | 424 kts | 15° |
| 2026-05-04 16:59 | 46.11596 | -12.98837 | 32960 ft | 423 kts | 15° |
| 2026-05-04 17:00 | 46.22024 | -12.94740 | 33853 ft | 425 kts | 15° |
| 2026-05-04 17:00 | 46.31467 | -12.91015 | 34663 ft | 423 kts | 15° |
| 2026-05-04 17:01 | 46.37211 | -12.88744 | 34783 ft | 432 kts | 15° |
| 2026-05-04 17:01 | 46.42998 | -12.86450 | 35242 ft | 430 kts | 15° |
| 2026-05-04 17:02 | 46.47804 | -12.84541 | 35531 ft | 431 kts | 15° |
| 2026-05-04 17:02 | 46.53583 | -12.82241 | 35908 ft | 431 kts | 15° |
| 2026-05-04 17:03 | 46.57425 | -12.80709 | 36080 ft | 433 kts | 15° |
| 2026-05-04 17:03 | 46.60331 | -12.79549 | 36222 ft | 434 kts | 14° |
| 2026-05-04 17:03 | 46.65214 | -12.77596 | 36505 ft | 434 kts | 14° |
| 2026-05-04 17:04 | 46.70995 | -12.75280 | 36907 ft | 433 kts | 14° |
| 2026-05-04 17:04 | 46.76805 | -12.72947 | 37076 ft | 435 kts | 14° |
| 2026-05-04 17:05 | 46.88446 | -12.68257 | 37091 ft | 434 kts | 14° |
| 2026-05-04 17:06 | 46.97163 | -12.64731 | 37089 ft | 432 kts | 15° |
| 2026-05-04 17:07 | 47.04860 | -12.61608 | 37090 ft | 431 kts | 15° |
| 2026-05-04 17:07 | 47.11601 | -12.58865 | 37087 ft | 430 kts | 15° |
| 2026-05-04 17:08 | 47.20185 | -12.55361 | 37101 ft | 428 kts | 15° |
| 2026-05-04 17:09 | 47.25925 | -12.53012 | 37107 ft | 428 kts | 15° |
| 2026-05-04 17:09 | 47.31664 | -12.50658 | 37107 ft | 429 kts | 15° |
| 2026-05-04 17:10 | 47.46023 | -12.44744 | 37103 ft | 431 kts | 15° |
| 2026-05-04 17:11 | 47.51807 | -12.42352 | 37101 ft | 432 kts | 15° |
| 2026-05-04 17:12 | 47.60503 | -12.38747 | 37109 ft | 433 kts | 15° |
| 2026-05-04 17:13 | 47.74968 | -12.32721 | 37097 ft | 433 kts | 15° |
| 2026-05-04 17:14 | 47.86544 | -12.27873 | 37105 ft | 432 kts | 15° |
| 2026-05-04 17:15 | 47.95175 | -12.24244 | 37103 ft | 431 kts | 16° |
| 2026-05-04 17:16 | 48.06704 | -12.19377 | 37109 ft | 430 kts | 16° |
| 2026-05-04 17:17 | 48.18199 | -12.14501 | 37107 ft | 429 kts | 16° |
| 2026-05-04 17:18 | 48.29648 | -12.09623 | 37120 ft | 429 kts | 16° |
| 2026-05-04 17:19 | 48.41150 | -12.04699 | 37112 ft | 430 kts | 16° |
| 2026-05-04 17:20 | 48.52640 | -11.99757 | 37106 ft | 431 kts | 16° |
| 2026-05-04 17:20 | 48.61301 | -11.96015 | 37104 ft | 432 kts | 16° |
| 2026-05-04 17:21 | 48.72824 | -11.91018 | 37096 ft | 432 kts | 17° |
| 2026-05-04 17:22 | 48.78597 | -11.88505 | 37105 ft | 431 kts | 17° |
| 2026-05-04 17:23 | 48.90132 | -11.83465 | 37110 ft | 431 kts | 17° |
| 2026-05-04 17:24 | 48.98733 | -11.79692 | 37111 ft | 431 kts | 17° |
| 2026-05-04 17:24 | 49.07150 | -11.75055 | 37108 ft | 429 kts | 31° |
| 2026-05-04 17:25 | 49.09650 | -11.72572 | 37118 ft | 429 kts | 33° |
| 2026-05-04 17:26 | 49.19500 | -11.62414 | 37114 ft | 428 kts | 33° |
| 2026-05-04 17:27 | 49.31874 | -11.49735 | 37113 ft | 428 kts | 33° |
| 2026-05-04 17:28 | 49.41780 | -11.39555 | 37094 ft | 429 kts | 33° |
| 2026-05-04 17:29 | 49.56583 | -11.24246 | 37106 ft | 429 kts | 34° |
| 2026-05-04 17:31 | 49.68921 | -11.11399 | 37104 ft | 429 kts | 34° |
| 2026-05-04 17:32 | 49.81272 | -10.98458 | 37102 ft | 429 kts | 34° |
| 2026-05-04 17:33 | 49.91102 | -10.88099 | 37087 ft | 429 kts | 34° |
| 2026-05-04 17:34 | 50.00950 | -10.77670 | 37093 ft | 428 kts | 34° |
| 2026-05-04 17:35 | 50.13207 | -10.64616 | 37098 ft | 428 kts | 34° |
| 2026-05-04 17:36 | 50.18111 | -10.59370 | 37105 ft | 427 kts | 35° |
| 2026-05-04 17:36 | 50.23014 | -10.54112 | 37097 ft | 427 kts | 35° |
| 2026-05-04 17:37 | 50.27880 | -10.48879 | 37095 ft | 427 kts | 35° |
| 2026-05-04 17:37 | 50.32774 | -10.43604 | 37101 ft | 427 kts | 35° |
| 2026-05-04 17:38 | 50.37669 | -10.38314 | 37099 ft | 427 kts | 35° |
| 2026-05-04 17:38 | 50.42563 | -10.33012 | 37085 ft | 428 kts | 35° |
| 2026-05-04 17:39 | 50.49861 | -10.25079 | 37095 ft | 427 kts | 35° |
| 2026-05-04 17:39 | 50.54751 | -10.19747 | 37091 ft | 428 kts | 35° |
| 2026-05-04 17:40 | 50.59642 | -10.14401 | 37094 ft | 428 kts | 35° |
| 2026-05-04 17:40 | 50.64531 | -10.09042 | 37093 ft | 428 kts | 35° |
| 2026-05-04 17:41 | 50.69391 | -10.03701 | 37093 ft | 429 kts | 35° |
| 2026-05-04 17:41 | 50.74285 | -9.98310 | 37095 ft | 429 kts | 35° |
| 2026-05-04 17:42 | 50.79177 | -9.92906 | 37090 ft | 429 kts | 36° |
| 2026-05-04 17:42 | 50.84072 | -9.87485 | 37087 ft | 430 kts | 36° |
| 2026-05-04 17:43 | 50.88934 | -9.82087 | 37090 ft | 430 kts | 36° |
| 2026-05-04 17:43 | 50.93823 | -9.76644 | 37073 ft | 430 kts | 36° |
| 2026-05-04 17:44 | 50.98711 | -9.71189 | 37085 ft | 429 kts | 36° |
| 2026-05-04 17:44 | 51.03593 | -9.65725 | 37086 ft | 429 kts | 36° |
| 2026-05-04 17:45 | 51.08469 | -9.60254 | 37088 ft | 429 kts | 36° |
| 2026-05-04 17:45 | 51.13310 | -9.54808 | 37086 ft | 429 kts | 36° |
| 2026-05-04 17:46 | 51.18181 | -9.49314 | 37093 ft | 429 kts | 36° |
| 2026-05-04 17:46 | 51.23047 | -9.43811 | 37090 ft | 429 kts | 36° |
| 2026-05-04 17:47 | 51.27912 | -9.38294 | 37089 ft | 429 kts | 36° |
| 2026-05-04 17:47 | 51.32771 | -9.32769 | 37084 ft | 429 kts | 36° |
| 2026-05-04 17:48 | 51.37594 | -9.27272 | 37087 ft | 429 kts | 36° |
| 2026-05-04 17:48 | 51.42448 | -9.21724 | 37083 ft | 429 kts | 36° |
| 2026-05-04 17:49 | 51.47300 | -9.16164 | 37075 ft | 428 kts | 36° |
| 2026-05-04 17:49 | 51.52147 | -9.10593 | 37086 ft | 429 kts | 36° |
| 2026-05-04 17:50 | 51.56995 | -9.05007 | 37086 ft | 429 kts | 36° |
| 2026-05-04 17:50 | 51.61811 | -8.99444 | 37084 ft | 429 kts | 36° |
| 2026-05-04 17:51 | 51.66665 | -8.93821 | 37088 ft | 430 kts | 36° |
| 2026-05-04 17:51 | 51.71519 | -8.88184 | 37057 ft | 430 kts | 36° |
| 2026-05-04 17:52 | 51.76371 | -8.82533 | 37073 ft | 430 kts | 36° |
| 2026-05-04 17:52 | 51.81220 | -8.76871 | 37093 ft | 430 kts | 37° |
| 2026-05-04 17:53 | 51.86039 | -8.71227 | 37082 ft | 431 kts | 37° |
| 2026-05-04 17:53 | 51.90896 | -8.65525 | 37077 ft | 431 kts | 37° |
| 2026-05-04 17:54 | 51.95751 | -8.59809 | 37076 ft | 432 kts | 37° |
| 2026-05-04 17:54 | 52.00607 | -8.54076 | 37071 ft | 432 kts | 37° |
| 2026-05-04 17:55 | 52.05426 | -8.48371 | 37080 ft | 432 kts | 37° |
| 2026-05-04 17:55 | 52.10276 | -8.42614 | 37075 ft | 432 kts | 37° |
| 2026-05-04 17:56 | 52.15129 | -8.36838 | 37088 ft | 432 kts | 37° |
| 2026-05-04 17:56 | 52.19982 | -8.31045 | 37081 ft | 433 kts | 37° |
| 2026-05-04 17:57 | 52.24837 | -8.25234 | 37067 ft | 433 kts | 37° |
| 2026-05-04 17:57 | 52.29655 | -8.19451 | 37080 ft | 433 kts | 37° |
| 2026-05-04 17:58 | 52.34502 | -8.13617 | 37075 ft | 433 kts | 37° |
| 2026-05-04 17:58 | 52.39350 | -8.07765 | 37083 ft | 433 kts | 37° |
| 2026-05-04 17:59 | 52.44201 | -8.01894 | 37075 ft | 434 kts | 37° |
| 2026-05-04 18:00 | 52.51439 | -7.93104 | 37066 ft | 434 kts | 37° |
| 2026-05-04 18:00 | 52.56285 | -7.87197 | 37077 ft | 434 kts | 37° |
| 2026-05-04 18:01 | 52.61130 | -7.81275 | 37074 ft | 434 kts | 37° |
| 2026-05-04 18:01 | 52.65974 | -7.75337 | 37070 ft | 434 kts | 37° |
| 2026-05-04 18:02 | 52.73206 | -7.66442 | 37073 ft | 435 kts | 37° |
| 2026-05-04 18:02 | 52.78049 | -7.60463 | 37069 ft | 435 kts | 37° |
| 2026-05-04 18:03 | 52.82891 | -7.54469 | 37079 ft | 436 kts | 37° |
| 2026-05-04 18:03 | 52.87709 | -7.48487 | 37071 ft | 436 kts | 37° |
| 2026-05-04 18:04 | 52.92559 | -7.42448 | 37072 ft | 436 kts | 37° |
| 2026-05-04 18:05 | 52.99830 | -7.33362 | 37074 ft | 436 kts | 37° |
| 2026-05-04 18:05 | 53.04678 | -7.27283 | 37062 ft | 437 kts | 36° |
| 2026-05-04 18:06 | 53.11986 | -7.18363 | 37073 ft | 436 kts | 35° |
| 2026-05-04 18:06 | 53.16906 | -7.12420 | 37077 ft | 437 kts | 36° |
| 2026-05-04 18:07 | 53.21818 | -7.06448 | 37068 ft | 437 kts | 36° |
| 2026-05-04 18:07 | 53.26724 | -7.00452 | 37071 ft | 437 kts | 36° |
| 2026-05-04 18:08 | 53.31594 | -6.94477 | 37070 ft | 437 kts | 36° |
| 2026-05-04 18:08 | 53.36495 | -6.88448 | 37073 ft | 437 kts | 36° |
| 2026-05-04 18:09 | 53.46291 | -6.76345 | 37071 ft | 438 kts | 36° |
| 2026-05-04 18:10 | 53.51154 | -6.70310 | 37069 ft | 438 kts | 36° |
| 2026-05-04 18:10 | 53.56049 | -6.64217 | 37074 ft | 438 kts | 36° |
| 2026-05-04 18:11 | 53.60941 | -6.58110 | 37075 ft | 438 kts | 36° |
| 2026-05-04 18:11 | 53.65836 | -6.51982 | 37072 ft | 439 kts | 36° |
| 2026-05-04 18:12 | 53.70735 | -6.45831 | 37074 ft | 439 kts | 36° |
| 2026-05-04 18:12 | 53.75604 | -6.39699 | 37072 ft | 440 kts | 36° |
| 2026-05-04 18:13 | 53.80508 | -6.33503 | 37081 ft | 440 kts | 36° |
| 2026-05-04 18:14 | 53.87870 | -6.24169 | 37076 ft | 441 kts | 36° |
| 2026-05-04 18:14 | 53.92783 | -6.17917 | 37080 ft | 442 kts | 36° |
| 2026-05-04 18:15 | 54.02592 | -6.05376 | 37082 ft | 443 kts | 36° |
| 2026-05-04 18:16 | 54.07515 | -5.99053 | 37082 ft | 444 kts | 36° |
| 2026-05-04 18:16 | 54.12441 | -5.92708 | 37069 ft | 444 kts | 36° |
| 2026-05-04 18:17 | 54.19803 | -5.83187 | 37086 ft | 445 kts | 36° |
| 2026-05-04 18:18 | 54.27218 | -5.73553 | 37086 ft | 447 kts | 36° |
| 2026-05-04 18:18 | 54.32168 | -5.67096 | 37084 ft | 448 kts | 36° |
| 2026-05-04 18:19 | 54.39579 | -5.57395 | 37073 ft | 450 kts | 36° |
| 2026-05-04 18:19 | 54.44560 | -5.50881 | 37083 ft | 450 kts | 36° |
| 2026-05-04 18:20 | 54.49555 | -5.44353 | 37082 ft | 451 kts | 36° |
| 2026-05-04 18:20 | 54.54555 | -5.37795 | 37085 ft | 452 kts | 36° |
| 2026-05-04 18:21 | 54.59523 | -5.31254 | 37078 ft | 453 kts | 36° |
| 2026-05-04 18:21 | 54.64521 | -5.24651 | 37083 ft | 453 kts | 36° |
| 2026-05-04 18:22 | 54.69527 | -5.18016 | 37079 ft | 453 kts | 36° |
| 2026-05-04 18:22 | 54.74531 | -5.11362 | 37081 ft | 454 kts | 36° |
| 2026-05-04 18:23 | 54.79501 | -5.04733 | 37077 ft | 454 kts | 36° |
| 2026-05-04 18:23 | 54.84508 | -4.98032 | 37073 ft | 455 kts | 36° |
| 2026-05-04 18:24 | 54.89515 | -4.91311 | 37074 ft | 455 kts | 36° |
| 2026-05-04 18:24 | 54.94529 | -4.84558 | 37075 ft | 456 kts | 36° |
| 2026-05-04 18:25 | 54.99515 | -4.77821 | 37077 ft | 457 kts | 36° |
| 2026-05-04 18:25 | 55.04545 | -4.71003 | 37072 ft | 458 kts | 36° |
| 2026-05-04 18:26 | 55.09578 | -4.64158 | 37072 ft | 459 kts | 36° |
| 2026-05-04 18:26 | 55.14621 | -4.57277 | 37069 ft | 460 kts | 36° |
| 2026-05-04 18:27 | 55.19671 | -4.50364 | 37076 ft | 461 kts | 35° |
| 2026-05-04 18:27 | 55.24694 | -4.43464 | 37074 ft | 462 kts | 36° |
| 2026-05-04 18:28 | 55.29755 | -4.36489 | 37076 ft | 463 kts | 36° |
| 2026-05-04 18:28 | 55.34822 | -4.29483 | 37072 ft | 464 kts | 36° |
| 2026-05-04 18:29 | 55.39895 | -4.22445 | 37066 ft | 464 kts | 36° |
| 2026-05-04 18:29 | 55.44928 | -4.15438 | 37062 ft | 464 kts | 36° |
| 2026-05-04 18:30 | 55.52533 | -4.04808 | 37064 ft | 466 kts | 35° |
| 2026-05-04 18:31 | 55.57607 | -3.97685 | 37048 ft | 466 kts | 35° |
| 2026-05-04 18:31 | 55.62684 | -3.90534 | 37047 ft | 467 kts | 35° |
| 2026-05-04 18:32 | 55.67727 | -3.83405 | 37050 ft | 467 kts | 35° |
| 2026-05-04 18:32 | 55.72807 | -3.76200 | 37052 ft | 468 kts | 35° |
| 2026-05-04 18:33 | 55.77891 | -3.68965 | 37020 ft | 469 kts | 35° |
| 2026-05-04 18:33 | 55.82977 | -3.61702 | 37035 ft | 469 kts | 35° |
| 2026-05-04 18:34 | 55.88066 | -3.54409 | 37023 ft | 470 kts | 35° |
| 2026-05-04 18:34 | 55.93117 | -3.47146 | 37021 ft | 470 kts | 35° |
| 2026-05-04 18:35 | 55.98209 | -3.39797 | 37023 ft | 470 kts | 35° |
| 2026-05-04 18:35 | 56.03296 | -3.32430 | 37018 ft | 471 kts | 36° |
| 2026-05-04 18:36 | 56.08381 | -3.25042 | 37031 ft | 471 kts | 36° |
| 2026-05-04 18:36 | 56.13416 | -3.17643 | 37011 ft | 472 kts | 37° |
| 2026-05-04 18:37 | 56.18358 | -3.09896 | 37013 ft | 472 kts | 38° |
| 2026-05-04 18:37 | 56.23259 | -3.02054 | 37011 ft | 472 kts | 38° |
| 2026-05-04 18:38 | 56.28167 | -2.94218 | 37016 ft | 472 kts | 38° |
| 2026-05-04 18:38 | 56.33052 | -2.86435 | 37005 ft | 472 kts | 38° |
| 2026-05-04 18:39 | 56.37970 | -2.78585 | 36999 ft | 473 kts | 38° |
| 2026-05-04 18:39 | 56.42887 | -2.70710 | 36986 ft | 473 kts | 38° |
| 2026-05-04 18:40 | 56.47806 | -2.62802 | 36994 ft | 473 kts | 38° |
| 2026-05-04 18:40 | 56.52720 | -2.54870 | 36991 ft | 474 kts | 38° |
| 2026-05-04 18:41 | 56.57603 | -2.46960 | 36995 ft | 474 kts | 38° |
| 2026-05-04 18:41 | 56.62523 | -2.38962 | 36993 ft | 475 kts | 38° |
| 2026-05-04 18:42 | 56.67391 | -2.31019 | 36999 ft | 475 kts | 38° |
| 2026-05-04 18:42 | 56.72046 | -2.23396 | 36985 ft | 476 kts | 38° |
| 2026-05-04 18:43 | 56.76616 | -2.15887 | 36992 ft | 477 kts | 38° |
| 2026-05-04 18:43 | 56.80649 | -2.09237 | 36990 ft | 477 kts | 38° |
| 2026-05-04 18:44 | 56.83536 | -2.04336 | 37004 ft | 479 kts | 40° |
| 2026-05-04 18:44 | 56.85725 | -2.00544 | 37000 ft | 478 kts | 38° |
| 2026-05-04 18:45 | 56.87587 | -1.97434 | 37072 ft | 476 kts | 37° |
| 2026-05-04 18:45 | 56.89586 | -1.94489 | 36837 ft | 477 kts | 28° |
| 2026-05-04 18:45 | 56.90739 | -1.93225 | 36579 ft | 477 kts | 23° |
| 2026-05-04 18:46 | 56.91822 | -1.92114 | 36744 ft | 471 kts | 30° |
| 2026-05-04 18:46 | 56.92833 | -1.90675 | 37127 ft | 467 kts | 40° |
| 2026-05-04 18:46 | 56.93702 | -1.89036 | 37383 ft | 464 kts | 44° |
| 2026-05-04 18:46 | 56.94791 | -1.86836 | 37734 ft | 454 kts | 43° |
| 2026-05-04 18:47 | 56.95725 | -1.84952 | 37928 ft | 451 kts | 45° |
| 2026-05-04 18:47 | 56.97342 | -1.81607 | 37766 ft | 455 kts | 43° |
| 2026-05-04 18:47 | 56.98160 | -1.80066 | 37511 ft | 458 kts | 38° |
| 2026-05-04 18:48 | 56.99074 | -1.78633 | 37112 ft | 462 kts | 30° |
| 2026-05-04 18:48 | 57.00082 | -1.77450 | 36485 ft | 466 kts | 20° |
| 2026-05-04 18:48 | 57.01261 | -1.76599 | 35421 ft | 471 kts | 8° |
| 2026-05-04 18:48 | 57.02970 | -1.75869 | 34279 ft | 502 kts | 7° |
| 2026-05-04 18:49 | 57.04794 | -1.75144 | 34526 ft | 485 kts | 6° |
| 2026-05-04 18:49 | 57.06273 | -1.74558 | 34987 ft | 469 kts | 10° |
| 2026-05-04 18:49 | 57.08036 | -1.73544 | 35939 ft | 447 kts | 13° |
| 2026-05-04 18:49 | 57.10520 | -1.71959 | 37042 ft | 429 kts | 13° |
| 2026-05-04 18:50 | 57.13120 | -1.70252 | 37073 ft | 434 kts | 18° |
| 2026-05-04 18:50 | 57.15303 | -1.68113 | 36874 ft | 449 kts | 29° |
| 2026-05-04 18:50 | 57.17493 | -1.65115 | 37012 ft | 453 kts | 33° |
| 2026-05-04 18:51 | 57.22393 | -1.57583 | 37093 ft | 460 kts | 35° |
| 2026-05-04 18:51 | 57.24851 | -1.53841 | 37451 ft | 456 kts | 37° |
| 2026-05-04 18:51 | 57.27135 | -1.49771 | 37710 ft | 458 kts | 43° |
| 2026-05-04 18:51 | 57.29244 | -1.45377 | 37557 ft | 467 kts | 45° |
| 2026-05-04 18:52 | 57.31351 | -1.40751 | 37458 ft | 474 kts | 46° |
| 2026-05-04 18:52 | 57.33488 | -1.36054 | 37343 ft | 480 kts | 45° |
| 2026-05-04 18:52 | 57.35681 | -1.31338 | 37216 ft | 486 kts | 45° |
| 2026-05-04 18:52 | 57.37910 | -1.26584 | 37051 ft | 490 kts | 45° |
| 2026-05-04 18:53 | 57.40141 | -1.21819 | 37010 ft | 488 kts | 45° |
| 2026-05-04 18:53 | 57.44545 | -1.12348 | 36989 ft | 483 kts | 45° |
| 2026-05-04 18:54 | 57.48895 | -1.02931 | 36999 ft | 485 kts | 45° |
| 2026-05-04 18:54 | 57.53292 | -0.93365 | 36997 ft | 488 kts | 45° |
| 2026-05-04 18:55 | 57.57702 | -0.83728 | 36994 ft | 490 kts | 46° |
| 2026-05-04 18:55 | 57.64323 | -0.69184 | 36991 ft | 491 kts | 46° |
| 2026-05-04 18:56 | 57.68709 | -0.59509 | 36996 ft | 491 kts | 46° |
| 2026-05-04 18:56 | 57.73440 | -0.50410 | 37003 ft | 485 kts | 37° |
| 2026-05-04 18:57 | 57.78544 | -0.42185 | 36989 ft | 483 kts | 35° |
| 2026-05-04 18:57 | 57.83650 | -0.34005 | 36999 ft | 483 kts | 36° |
| 2026-05-04 18:58 | 57.88710 | -0.25720 | 36998 ft | 482 kts | 37° |
| 2026-05-04 18:58 | 57.93697 | -0.17436 | 37027 ft | 481 kts | 37° |
| 2026-05-04 18:59 | 57.98713 | -0.09054 | 37008 ft | 481 kts | 37° |
| 2026-05-04 18:59 | 58.03715 | -0.00666 | 37007 ft | 481 kts | 37° |
| 2026-05-04 19:00 | 58.08718 | 0.07751 | 37006 ft | 482 kts | 37° |
| 2026-05-04 19:00 | 58.13714 | 0.16187 | 37006 ft | 482 kts | 37° |
| 2026-05-04 19:01 | 58.18679 | 0.24603 | 37007 ft | 482 kts | 37° |
| 2026-05-04 19:01 | 58.23682 | 0.33117 | 37006 ft | 484 kts | 37° |
| 2026-05-04 19:02 | 58.28695 | 0.41682 | 37013 ft | 485 kts | 37° |
| 2026-05-04 19:02 | 58.33707 | 0.50281 | 37011 ft | 486 kts | 37° |
| 2026-05-04 19:03 | 58.38692 | 0.58868 | 37006 ft | 487 kts | 37° |
| 2026-05-04 19:03 | 58.43709 | 0.67545 | 37013 ft | 487 kts | 37° |
| 2026-05-04 19:04 | 58.48730 | 0.76263 | 37036 ft | 488 kts | 37° |
| 2026-05-04 19:04 | 58.53762 | 0.85034 | 37014 ft | 489 kts | 38° |
| 2026-05-04 19:05 | 58.58784 | 0.93826 | 37009 ft | 490 kts | 38° |
| 2026-05-04 19:05 | 58.63775 | 1.02598 | 37002 ft | 489 kts | 38° |
| 2026-05-04 19:06 | 58.68784 | 1.11438 | 37002 ft | 489 kts | 38° |
| 2026-05-04 19:06 | 58.73787 | 1.20303 | 37005 ft | 489 kts | 38° |
| 2026-05-04 19:07 | 58.78783 | 1.29192 | 36999 ft | 488 kts | 38° |
| 2026-05-04 19:07 | 58.83732 | 1.38034 | 36999 ft | 488 kts | 38° |
| 2026-05-04 19:08 | 58.88710 | 1.46964 | 37000 ft | 488 kts | 38° |
| 2026-05-04 19:08 | 58.93675 | 1.55906 | 37000 ft | 488 kts | 38° |
| 2026-05-04 19:09 | 58.98633 | 1.64874 | 37000 ft | 488 kts | 38° |
| 2026-05-04 19:09 | 59.03550 | 1.73801 | 37029 ft | 488 kts | 38° |
| 2026-05-04 19:10 | 59.08575 | 1.82675 | 37016 ft | 487 kts | 37° |
| 2026-05-04 19:10 | 59.13639 | 1.91426 | 37000 ft | 488 kts | 37° |
| 2026-05-04 19:11 | 59.18704 | 2.00228 | 37000 ft | 488 kts | 37° |
| 2026-05-04 19:11 | 59.23727 | 2.09037 | 36996 ft | 489 kts | 37° |
| 2026-05-04 19:12 | 59.31302 | 2.22421 | 37034 ft | 490 kts | 37° |
| 2026-05-04 19:13 | 59.36362 | 2.31407 | 36997 ft | 491 kts | 37° |
| 2026-05-04 19:13 | 59.41426 | 2.40439 | 36980 ft | 492 kts | 37° |
| 2026-05-04 19:14 | 59.46460 | 2.49454 | 36981 ft | 493 kts | 37° |
| 2026-05-04 19:14 | 59.51523 | 2.58561 | 36980 ft | 493 kts | 37° |
| 2026-05-04 19:15 | 59.56582 | 2.67696 | 36976 ft | 494 kts | 37° |
| 2026-05-04 19:15 | 59.61645 | 2.76880 | 36982 ft | 495 kts | 37° |
| 2026-05-04 19:16 | 59.66712 | 2.86109 | 36988 ft | 495 kts | 37° |
| 2026-05-04 19:16 | 59.71740 | 2.95307 | 36978 ft | 496 kts | 37° |
| 2026-05-04 19:17 | 59.76801 | 3.04608 | 36977 ft | 496 kts | 37° |
| 2026-05-04 19:17 | 59.81858 | 3.13939 | 36980 ft | 496 kts | 38° |
| 2026-05-04 19:18 | 59.86910 | 3.23302 | 37001 ft | 497 kts | 38° |
| 2026-05-04 19:18 | 59.91936 | 3.32656 | 36981 ft | 498 kts | 38° |
| 2026-05-04 19:19 | 59.96988 | 3.42102 | 36972 ft | 498 kts | 38° |
| 2026-05-04 19:19 | 60.02037 | 3.51583 | 36962 ft | 498 kts | 38° |
| 2026-05-04 19:20 | 60.07084 | 3.61101 | 36965 ft | 499 kts | 38° |
| 2026-05-04 19:20 | 60.12089 | 3.70584 | 36964 ft | 499 kts | 38° |
| 2026-05-04 19:21 | 60.17134 | 3.80182 | 36954 ft | 500 kts | 38° |
| 2026-05-04 19:21 | 60.22169 | 3.89806 | 36955 ft | 500 kts | 38° |
| 2026-05-04 19:22 | 60.27200 | 3.99465 | 36946 ft | 499 kts | 38° |
| 2026-05-04 19:22 | 60.32214 | 4.09136 | 36949 ft | 499 kts | 38° |
| 2026-05-04 19:23 | 60.37188 | 4.18771 | 36951 ft | 498 kts | 38° |
| 2026-05-04 19:23 | 60.42186 | 4.28496 | 36968 ft | 499 kts | 38° |
| 2026-05-04 19:24 | 60.47180 | 4.38254 | 36948 ft | 499 kts | 38° |
| 2026-05-04 19:24 | 60.52122 | 4.48143 | 36934 ft | 499 kts | 39° |
| 2026-05-04 19:25 | 60.56985 | 4.58070 | 36933 ft | 499 kts | 39° |
| 2026-05-04 19:25 | 60.61868 | 4.68074 | 36939 ft | 498 kts | 39° |
| 2026-05-04 19:26 | 60.66749 | 4.78090 | 36992 ft | 498 kts | 39° |
| 2026-05-04 19:26 | 60.71630 | 4.88136 | 36931 ft | 499 kts | 40° |
| 2026-05-04 19:27 | 60.76474 | 4.98152 | 36927 ft | 498 kts | 40° |
| 2026-05-04 19:27 | 60.81337 | 5.08257 | 36922 ft | 498 kts | 40° |
| 2026-05-04 19:28 | 60.86187 | 5.18381 | 36924 ft | 497 kts | 40° |
| 2026-05-04 19:28 | 60.91029 | 5.28533 | 36917 ft | 498 kts | 40° |
| 2026-05-04 19:29 | 60.95863 | 5.38718 | 36935 ft | 497 kts | 40° |
| 2026-05-04 19:29 | 61.00656 | 5.48861 | 36913 ft | 497 kts | 40° |
| 2026-05-04 19:30 | 61.05474 | 5.59105 | 36902 ft | 498 kts | 41° |
| 2026-05-04 19:30 | 61.10287 | 5.69386 | 36894 ft | 498 kts | 41° |
| 2026-05-04 19:31 | 61.15091 | 5.79698 | 36906 ft | 498 kts | 41° |
| 2026-05-04 19:31 | 61.19862 | 5.89984 | 36873 ft | 499 kts | 41° |
| 2026-05-04 19:32 | 61.24670 | 6.00398 | 36875 ft | 500 kts | 41° |
| 2026-05-04 19:32 | 61.29484 | 6.10876 | 36869 ft | 502 kts | 41° |
| 2026-05-04 19:33 | 61.34296 | 6.21402 | 36862 ft | 502 kts | 41° |
| 2026-05-04 19:33 | 61.39069 | 6.31891 | 36864 ft | 502 kts | 42° |
| 2026-05-04 19:34 | 61.43876 | 6.42505 | 36863 ft | 503 kts | 42° |
| 2026-05-04 19:34 | 61.48670 | 6.53142 | 36840 ft | 502 kts | 42° |
| 2026-05-04 19:35 | 61.53450 | 6.63798 | 36851 ft | 501 kts | 42° |
| 2026-05-04 19:35 | 61.58218 | 6.74479 | 36837 ft | 501 kts | 42° |
| 2026-05-04 19:36 | 61.62944 | 6.85115 | 36845 ft | 502 kts | 42° |
| 2026-05-04 19:36 | 61.67701 | 6.95874 | 36843 ft | 502 kts | 42° |
| 2026-05-04 19:37 | 61.72449 | 7.06666 | 36843 ft | 502 kts | 43° |
| 2026-05-04 19:37 | 61.76388 | 7.15655 | 36829 ft | 502 kts | 43° |
| 2026-05-04 19:38 | 61.81347 | 7.25921 | 36819 ft | 495 kts | 35° |
| 2026-05-04 19:38 | 61.87564 | 7.36544 | 36870 ft | 493 kts | 33° |
| 2026-05-04 19:39 | 61.92024 | 7.44083 | 36843 ft | 493 kts | 34° |
| 2026-05-04 19:39 | 61.97347 | 7.53278 | 36822 ft | 493 kts | 34° |
| 2026-05-04 19:40 | 62.02637 | 7.62569 | 36879 ft | 493 kts | 35° |
| 2026-05-04 19:40 | 62.08790 | 7.73459 | 36829 ft | 495 kts | 35° |
| 2026-05-04 19:41 | 62.13195 | 7.81288 | 36828 ft | 496 kts | 35° |
| 2026-05-04 19:41 | 62.18497 | 7.90746 | 36811 ft | 497 kts | 35° |
| 2026-05-04 19:42 | 62.23799 | 8.00246 | 36829 ft | 497 kts | 35° |
| 2026-05-04 19:42 | 62.29105 | 8.09800 | 36855 ft | 498 kts | 35° |
| 2026-05-04 19:43 | 62.34418 | 8.19409 | 36822 ft | 500 kts | 35° |
| 2026-05-04 19:43 | 62.39699 | 8.29007 | 36822 ft | 500 kts | 36° |
| 2026-05-04 19:44 | 62.45015 | 8.38717 | 36824 ft | 501 kts | 36° |
| 2026-05-04 19:44 | 62.50330 | 8.48473 | 36823 ft | 501 kts | 36° |
| 2026-05-04 19:45 | 62.55645 | 8.58275 | 36799 ft | 501 kts | 36° |
| 2026-05-04 19:45 | 62.60915 | 8.68041 | 36807 ft | 502 kts | 36° |
| 2026-05-04 19:46 | 62.66213 | 8.77908 | 36817 ft | 501 kts | 36° |
| 2026-05-04 19:46 | 62.71498 | 8.87799 | 36805 ft | 500 kts | 36° |
| 2026-05-04 19:47 | 62.76765 | 8.97705 | 36777 ft | 500 kts | 36° |
| 2026-05-04 19:47 | 62.81983 | 9.07565 | 36791 ft | 499 kts | 37° |
| 2026-05-04 19:48 | 62.87227 | 9.17523 | 36801 ft | 499 kts | 37° |
| 2026-05-04 19:48 | 62.92462 | 9.27513 | 36800 ft | 499 kts | 37° |
| 2026-05-04 19:49 | 62.97689 | 9.37537 | 36772 ft | 498 kts | 37° |
| 2026-05-04 19:49 | 63.02903 | 9.47587 | 36786 ft | 498 kts | 37° |
| 2026-05-04 19:50 | 63.08076 | 9.57602 | 36775 ft | 499 kts | 37° |
| 2026-05-04 19:50 | 63.12950 | 9.68558 | 36789 ft | 505 kts | 49° |
| 2026-05-04 19:51 | 63.17140 | 9.81059 | 36776 ft | 506 kts | 51° |
| 2026-05-04 19:51 | 63.21270 | 9.93670 | 36758 ft | 505 kts | 51° |
| 2026-05-04 19:52 | 63.25403 | 10.06129 | 36756 ft | 504 kts | 51° |
| 2026-05-04 19:52 | 63.29577 | 10.18648 | 36747 ft | 504 kts | 51° |
| 2026-05-04 19:53 | 63.33739 | 10.31187 | 36762 ft | 504 kts | 51° |
| 2026-05-04 19:53 | 63.37884 | 10.43761 | 36751 ft | 504 kts | 51° |
| 2026-05-04 19:54 | 63.42019 | 10.56382 | 36727 ft | 504 kts | 51° |
| 2026-05-04 19:54 | 63.46113 | 10.68945 | 36718 ft | 503 kts | 51° |
| 2026-05-04 19:55 | 63.50213 | 10.81594 | 36715 ft | 502 kts | 51° |
| 2026-05-04 19:55 | 63.54303 | 10.94260 | 36723 ft | 501 kts | 51° |
| 2026-05-04 19:56 | 63.58407 | 11.06915 | 36717 ft | 501 kts | 51° |
| 2026-05-04 19:56 | 63.62503 | 11.19588 | 36753 ft | 501 kts | 51° |
| 2026-05-04 19:57 | 63.66567 | 11.32246 | 36728 ft | 502 kts | 52° |
| 2026-05-04 19:57 | 63.70643 | 11.45028 | 36702 ft | 502 kts | 52° |
| 2026-05-04 19:58 | 63.74707 | 11.57849 | 36699 ft | 502 kts | 52° |
| 2026-05-04 19:58 | 63.78765 | 11.70718 | 36691 ft | 503 kts | 52° |
| 2026-05-04 19:59 | 63.82785 | 11.83544 | 36690 ft | 503 kts | 52° |
| 2026-05-04 19:59 | 63.86820 | 11.96488 | 36719 ft | 503 kts | 52° |
| 2026-05-04 20:00 | 63.90849 | 12.09488 | 36695 ft | 503 kts | 53° |
| 2026-05-04 20:00 | 63.94864 | 12.22516 | 36692 ft | 503 kts | 53° |
| 2026-05-04 20:01 | 63.98848 | 12.35465 | 36887 ft | 502 kts | 52° |
| 2026-05-04 20:01 | 64.03049 | 12.48150 | 36970 ft | 501 kts | 50° |
| 2026-05-04 20:02 | 64.07302 | 12.60758 | 36960 ft | 501 kts | 50° |
| 2026-05-04 20:02 | 64.11500 | 12.73451 | 36932 ft | 500 kts | 51° |
| 2026-05-04 20:03 | 64.15667 | 12.86206 | 36886 ft | 500 kts | 51° |
| 2026-05-04 20:03 | 64.19812 | 12.98875 | 36801 ft | 499 kts | 49° |
| 2026-05-04 20:04 | 64.24769 | 13.09847 | 36733 ft | 494 kts | 36° |
| 2026-05-04 20:04 | 64.30137 | 13.19745 | 36648 ft | 495 kts | 35° |
| 2026-05-04 20:05 | 64.35510 | 13.29691 | 36644 ft | 496 kts | 36° |
| 2026-05-04 20:05 | 64.40817 | 13.39719 | 36629 ft | 497 kts | 37° |
| 2026-05-04 20:06 | 64.46146 | 13.49921 | 36633 ft | 497 kts | 37° |
| 2026-05-04 20:06 | 64.51467 | 13.60174 | 36617 ft | 497 kts | 37° |
| 2026-05-04 20:07 | 64.56781 | 13.70462 | 36616 ft | 497 kts | 37° |
| 2026-05-04 20:07 | 64.62048 | 13.80706 | 36612 ft | 497 kts | 37° |
| 2026-05-04 20:08 | 64.67343 | 13.91056 | 36627 ft | 496 kts | 38° |
| 2026-05-04 20:08 | 64.72627 | 14.01439 | 36610 ft | 496 kts | 38° |
| 2026-05-04 20:09 | 64.77902 | 14.11861 | 36600 ft | 496 kts | 38° |
| 2026-05-04 20:09 | 64.83133 | 14.22250 | 36597 ft | 495 kts | 38° |
| 2026-05-04 20:10 | 64.88382 | 14.32730 | 36601 ft | 495 kts | 38° |
| 2026-05-04 20:10 | 64.93624 | 14.43252 | 36617 ft | 495 kts | 38° |
| 2026-05-04 20:11 | 64.98858 | 14.53812 | 36600 ft | 495 kts | 38° |
| 2026-05-04 20:11 | 65.04044 | 14.64335 | 36589 ft | 494 kts | 38° |
| 2026-05-04 20:12 | 65.09256 | 14.74965 | 36594 ft | 494 kts | 38° |
| 2026-05-04 20:12 | 65.14454 | 14.85624 | 36588 ft | 493 kts | 39° |
| 2026-05-04 20:13 | 65.19638 | 14.96312 | 36620 ft | 493 kts | 39° |
| 2026-05-04 20:13 | 65.24782 | 15.06974 | 36598 ft | 493 kts | 39° |
| 2026-05-04 20:14 | 65.29948 | 15.17740 | 36578 ft | 493 kts | 39° |
| 2026-05-04 20:14 | 65.35112 | 15.28559 | 36584 ft | 493 kts | 39° |
| 2026-05-04 20:15 | 65.40270 | 15.39423 | 36587 ft | 494 kts | 39° |
| 2026-05-04 20:15 | 65.45392 | 15.50271 | 36578 ft | 494 kts | 39° |
| 2026-05-04 20:16 | 65.50545 | 15.61247 | 36584 ft | 495 kts | 40° |
| 2026-05-04 20:16 | 65.55697 | 15.72280 | 36577 ft | 495 kts | 40° |
| 2026-05-04 20:17 | 65.60846 | 15.83367 | 36572 ft | 496 kts | 40° |
| 2026-05-04 20:17 | 65.65986 | 15.94498 | 36574 ft | 495 kts | 40° |
| 2026-05-04 20:18 | 65.71078 | 16.05584 | 36567 ft | 495 kts | 40° |
| 2026-05-04 20:18 | 65.76193 | 16.16784 | 36568 ft | 495 kts | 40° |
| 2026-05-04 20:19 | 65.81298 | 16.28023 | 36561 ft | 494 kts | 41° |
| 2026-05-04 20:19 | 65.86388 | 16.39291 | 36550 ft | 493 kts | 41° |
| 2026-05-04 20:20 | 65.91423 | 16.50500 | 36558 ft | 492 kts | 41° |
| 2026-05-04 20:20 | 65.96479 | 16.61821 | 36555 ft | 492 kts | 41° |
| 2026-05-04 20:21 | 66.01517 | 16.73160 | 36557 ft | 491 kts | 41° |
| 2026-05-04 20:21 | 66.08974 | 16.90290 | 36542 ft | 491 kts | 43° |
| 2026-05-04 20:22 | 66.13858 | 17.02055 | 36538 ft | 490 kts | 43° |
| 2026-05-04 20:22 | 66.18725 | 17.13867 | 36540 ft | 490 kts | 43° |
| 2026-05-04 20:23 | 66.23595 | 17.25694 | 36536 ft | 490 kts | 43° |
| 2026-05-04 20:23 | 66.28430 | 17.37470 | 36549 ft | 490 kts | 44° |
| 2026-05-04 20:24 | 66.33290 | 17.49370 | 36535 ft | 490 kts | 44° |
| 2026-05-04 20:24 | 66.38141 | 17.61318 | 36529 ft | 491 kts | 44° |
| 2026-05-04 20:25 | 66.42985 | 17.73320 | 36518 ft | 491 kts | 44° |
| 2026-05-04 20:25 | 66.45420 | 17.79380 | 36006 ft | 497 kts | 44° |
| 2026-05-04 20:25 | 66.47826 | 17.85384 | 35446 ft | 494 kts | 44° |
| 2026-05-04 20:26 | 66.50260 | 17.91477 | 34823 ft | 495 kts | 44° |
| 2026-05-04 20:26 | 66.52698 | 17.97597 | 34152 ft | 497 kts | 44° |
| 2026-05-04 20:26 | 66.55143 | 18.03752 | 33443 ft | 498 kts | 44° |
| 2026-05-04 20:26 | 66.57588 | 18.09928 | 32617 ft | 499 kts | 44° |
| 2026-05-04 20:27 | 66.60031 | 18.16114 | 31876 ft | 498 kts | 45° |
| 2026-05-04 20:27 | 66.62465 | 18.22299 | 31108 ft | 497 kts | 45° |
| 2026-05-04 20:27 | 66.64891 | 18.28480 | 30350 ft | 495 kts | 45° |
| 2026-05-04 20:27 | 66.67276 | 18.34574 | 29688 ft | 493 kts | 45° |
| 2026-05-04 20:28 | 66.69664 | 18.40694 | 29043 ft | 487 kts | 45° |
| 2026-05-04 20:28 | 66.72022 | 18.46756 | 28442 ft | 480 kts | 45° |
| 2026-05-04 20:28 | 66.74343 | 18.52740 | 27883 ft | 472 kts | 45° |
| 2026-05-04 20:28 | 66.76623 | 18.58634 | 27339 ft | 465 kts | 45° |
| 2026-05-04 20:29 | 66.78869 | 18.64456 | 26803 ft | 459 kts | 46° |
| 2026-05-04 20:29 | 66.81081 | 18.70207 | 26270 ft | 452 kts | 46° |
| 2026-05-04 20:29 | 66.83262 | 18.75890 | 25729 ft | 446 kts | 46° |
| 2026-05-04 20:29 | 66.85381 | 18.81430 | 25214 ft | 441 kts | 46° |
| 2026-05-04 20:30 | 66.87504 | 18.86994 | 24691 ft | 436 kts | 46° |
| 2026-05-04 20:30 | 66.89601 | 18.92502 | 24181 ft | 431 kts | 46° |
| 2026-05-04 20:30 | 66.91672 | 18.97958 | 23675 ft | 426 kts | 46° |
| 2026-05-04 20:30 | 66.93718 | 19.03362 | 23173 ft | 421 kts | 46° |
| 2026-05-04 20:31 | 66.95741 | 19.08719 | 22581 ft | 417 kts | 46° |
| 2026-05-04 20:31 | 66.97738 | 19.14020 | 22055 ft | 411 kts | 46° |
| 2026-05-04 20:31 | 66.99705 | 19.19255 | 21562 ft | 405 kts | 46° |
| 2026-05-04 20:31 | 67.01617 | 19.24359 | 21071 ft | 400 kts | 46° |
| 2026-05-04 20:32 | 67.03529 | 19.29471 | 20568 ft | 395 kts | 47° |
| 2026-05-04 20:32 | 67.05416 | 19.34527 | 20102 ft | 390 kts | 47° |
| 2026-05-04 20:32 | 67.07276 | 19.39525 | 19622 ft | 386 kts | 47° |
| 2026-05-04 20:32 | 67.09117 | 19.44485 | 19149 ft | 382 kts | 47° |
| 2026-05-04 20:33 | 67.10941 | 19.49410 | 18670 ft | 379 kts | 47° |
| 2026-05-04 20:33 | 67.12748 | 19.54300 | 18201 ft | 375 kts | 47° |
| 2026-05-04 20:33 | 67.14537 | 19.59153 | 17735 ft | 373 kts | 47° |
| 2026-05-04 20:33 | 67.16311 | 19.63977 | 17214 ft | 369 kts | 47° |
| 2026-05-04 20:34 | 67.18041 | 19.68694 | 16773 ft | 365 kts | 47° |
| 2026-05-04 20:34 | 67.19716 | 19.73269 | 16338 ft | 362 kts | 47° |
| 2026-05-04 20:34 | 67.21456 | 19.78033 | 15875 ft | 358 kts | 47° |
| 2026-05-04 20:34 | 67.23154 | 19.82691 | 15414 ft | 355 kts | 47° |
| 2026-05-04 20:35 | 67.24846 | 19.87342 | 14972 ft | 355 kts | 47° |
| 2026-05-04 20:35 | 67.26535 | 19.91996 | 14518 ft | 355 kts | 46° |
| 2026-05-04 20:35 | 67.28220 | 19.96652 | 14076 ft | 355 kts | 46° |
| 2026-05-04 20:35 | 67.29907 | 20.01316 | 13630 ft | 355 kts | 46° |
| 2026-05-04 20:36 | 67.31593 | 20.05990 | 13173 ft | 353 kts | 46° |
| 2026-05-04 20:36 | 67.33237 | 20.10560 | 12716 ft | 349 kts | 46° |
| 2026-05-04 20:36 | 67.34946 | 20.14980 | 12270 ft | 345 kts | 37° |
| 2026-05-04 20:36 | 67.37044 | 20.17902 | 11716 ft | 343 kts | 21° |
| 2026-05-04 20:37 | 67.39241 | 20.20261 | 11224 ft | 340 kts | 21° |
| 2026-05-04 20:37 | 67.41420 | 20.22610 | 10766 ft | 338 kts | 22° |
| 2026-05-04 20:37 | 67.43579 | 20.24964 | 10324 ft | 335 kts | 22° |
| 2026-05-04 20:37 | 67.45698 | 20.27300 | 10166 ft | 324 kts | 22° |
| 2026-05-04 20:38 | 67.47736 | 20.29568 | 10020 ft | 314 kts | 22° |
| 2026-05-04 20:38 | 67.49681 | 20.31745 | 9896 ft | 304 kts | 22° |
| 2026-05-04 20:38 | 67.51594 | 20.33894 | 9751 ft | 294 kts | 22° |
| 2026-05-04 20:38 | 67.53445 | 20.35980 | 9630 ft | 286 kts | 22° |
| 2026-05-04 20:39 | 67.55241 | 20.38008 | 9508 ft | 277 kts | 22° |
| 2026-05-04 20:39 | 67.56989 | 20.39987 | 9340 ft | 271 kts | 22° |
| 2026-05-04 20:39 | 67.58713 | 20.41941 | 9067 ft | 269 kts | 22° |
| 2026-05-04 20:39 | 67.60425 | 20.43885 | 8781 ft | 267 kts | 22° |
| 2026-05-04 20:40 | 67.62123 | 20.45816 | 8508 ft | 265 kts | 22° |
| 2026-05-04 20:40 | 67.63785 | 20.47710 | 8243 ft | 263 kts | 22° |
| 2026-05-04 20:40 | 67.65456 | 20.49617 | 7993 ft | 261 kts | 23° |
| 2026-05-04 20:40 | 67.67116 | 20.51516 | 7716 ft | 259 kts | 22° |
| 2026-05-04 20:41 | 67.68763 | 20.53402 | 7465 ft | 258 kts | 22° |
| 2026-05-04 20:41 | 67.70413 | 20.55293 | 7215 ft | 259 kts | 22° |
| 2026-05-04 20:41 | 67.72069 | 20.57194 | 6952 ft | 260 kts | 22° |
| 2026-05-04 20:41 | 67.73724 | 20.59096 | 6689 ft | 259 kts | 22° |
| 2026-05-04 20:42 | 67.75369 | 20.60991 | 6431 ft | 257 kts | 22° |
| 2026-05-04 20:42 | 67.76978 | 20.62849 | 6222 ft | 255 kts | 22° |
| 2026-05-04 20:42 | 67.78602 | 20.64725 | 5961 ft | 254 kts | 22° |
| 2026-05-04 20:42 | 67.80255 | 20.66256 | 5692 ft | 251 kts | 13° |
| 2026-05-04 20:43 | 67.81948 | 20.67304 | 5430 ft | 249 kts | 12° |
| 2026-05-04 20:43 | 67.83633 | 20.68313 | 5173 ft | 248 kts | 12° |
| 2026-05-04 20:43 | 67.85307 | 20.69355 | 4916 ft | 246 kts | 12° |
| 2026-05-04 20:43 | 67.86945 | 20.70405 | 4788 ft | 239 kts | 13° |
| 2026-05-04 20:44 | 67.88543 | 20.71443 | 4639 ft | 233 kts | 13° |
| 2026-05-04 20:44 | 67.90077 | 20.72446 | 4510 ft | 227 kts | 13° |
| 2026-05-04 20:44 | 67.91593 | 20.73262 | 4419 ft | 218 kts | 360° |
| 2026-05-04 20:44 | 67.92975 | 20.72187 | 4371 ft | 202 kts | 325° |
| 2026-05-04 20:45 | 67.93926 | 20.69643 | 4310 ft | 189 kts | 303° |
| 2026-05-04 20:45 | 67.94472 | 20.66524 | 4251 ft | 185 kts | 294° |
| 2026-05-04 20:45 | 67.94964 | 20.63362 | 4179 ft | 185 kts | 294° |
| 2026-05-04 20:45 | 67.95413 | 20.60133 | 4057 ft | 188 kts | 281° |
| 2026-05-04 20:46 | 67.95130 | 20.56815 | 3964 ft | 192 kts | 232° |
| 2026-05-04 20:46 | 67.94072 | 20.54750 | 3943 ft | 193 kts | 214° |
| 2026-05-04 20:46 | 67.93029 | 20.52570 | 3842 ft | 187 kts | 219° |
| 2026-05-04 20:46 | 67.91958 | 20.50675 | 3614 ft | 183 kts | 213° |
| 2026-05-04 20:47 | 67.90888 | 20.48868 | 3359 ft | 181 kts | 215° |
| 2026-05-04 20:47 | 67.89836 | 20.47041 | 3122 ft | 180 kts | 216° |
| 2026-05-04 20:47 | 67.88793 | 20.45219 | 2873 ft | 177 kts | 216° |
| 2026-05-04 20:47 | 67.87791 | 20.43470 | 2610 ft | 168 kts | 216° |
| 2026-05-04 20:48 | 67.86838 | 20.41803 | 2397 ft | 161 kts | 215° |
| 2026-05-04 20:48 | 67.85903 | 20.40168 | 2106 ft | 161 kts | 214° |
| 2026-05-04 20:48 | 67.84974 | 20.38545 | 1880 ft | 156 kts | 213° |
| 2026-05-04 20:48 | 67.84072 | 20.36963 | 1647 ft | 159 kts | 213° |
| 2026-05-04 20:49 | 67.83159 | 20.35365 | 1484 ft | 155 kts | 212° |
| 2026-05-04 20:49 | 67.82325 | 20.33910 | 1468 ft | 120 kts | 213° |
| 2026-05-04 20:49 | 67.81811 | 20.33010 | 1489 ft | 55 kts | 213° |
| 2026-05-04 20:49 | 67.81496 | 20.32459 | 1503 ft | 50 kts | 214° |
| 2026-05-04 20:50 | 67.81335 | 20.32080 | 1510 ft | 15 kts | 232° |
| 2026-05-04 20:50 | 67.81301 | 20.32118 | 1512 ft | 8 kts | 53° |
| 2026-05-04 20:50 | 67.81369 | 20.32239 | 1507 ft | 17 kts | 33° |
| 2026-05-04 20:50 | 67.81491 | 20.32451 | 1502 ft | 24 kts | 33° |
| 2026-05-04 20:51 | 67.81636 | 20.32704 | 1498 ft | 25 kts | 33° |
| 2026-05-04 20:51 | 67.81773 | 20.32946 | 1483 ft | 23 kts | 33° |
| 2026-05-04 20:51 | 67.81904 | 20.33174 | 1486 ft | 22 kts | 33° |
| 2026-05-04 20:51 | 67.82034 | 20.33402 | 1478 ft | 22 kts | 33° |
| 2026-05-04 20:52 | 67.82162 | 20.33625 | 1472 ft | 22 kts | 33° |
| 2026-05-04 20:52 | 67.82286 | 20.33841 | 1467 ft | 21 kts | 33° |
| 2026-05-04 20:52 | 67.82377 | 20.33938 | 1463 ft | 8 kts | 338° |
| 2026-05-04 20:52 | 67.82410 | 20.33841 | 1462 ft | 5 kts | 302° |
| 2026-05-04 20:53 | 67.82420 | 20.33798 | 1460 ft | 2 kts | 302° |
| 2026-05-04 20:53 | 67.82427 | 20.33768 | 1464 ft | 2 kts | 302° |
| 2026-05-04 20:53 | 67.82434 | 20.33739 | 1464 ft | 2 kts | 302° |
| 2026-05-04 20:53 | 67.82441 | 20.33712 | 1463 ft | 2 kts | 303° |
| 2026-05-04 20:54 | 67.82447 | 20.33685 | 1461 ft | 2 kts | 303° |
| 2026-05-04 20:54 | 67.82452 | 20.33656 | 1460 ft | 2 kts | 292° |
| 2026-05-04 20:54 | 67.82457 | 20.33593 | 1465 ft | 4 kts | 270° |
| 2026-05-04 20:54 | 67.82461 | 20.33501 | 1458 ft | 5 kts | 289° |
| 2026-05-04 20:55 | 67.82467 | 20.33479 | 1461 ft | 1 kts | 315° |
| 2026-05-04 20:55 | 67.82474 | 20.33471 | 1459 ft | 1 kts | 340° |
| 2026-05-04 20:55 | 67.82481 | 20.33472 | 1458 ft | 1 kts | 1° |
| 2026-05-04 20:55 | 67.82492 | 20.33481 | 1457 ft | 2 kts | 24° |
| 2026-05-04 20:56 | 67.82503 | 20.33495 | 1461 ft | 0 kts | 26° |